SAS2950 LEZL-ESSA
Flight info
| Callsign | SAS2950 |
|---|---|
| Flight time | N/A |
| Altitude | 36000 |
| Route | HIJ DCT PARKA N858 ABRIX DCT CNA DCT ADABI DCT BOKNO UN858 VANAD UN874 PIWIZ DCT VADOM UN874 ARSAF DCT EGOZE DCT CMB DCT VEKIN DCT ADUTO/N0443F390 DCT VICOT DCT GOTEX DCT DETSO N873 ARS T317 ELTOK |
| Aircraft | A319/M-SDE3FGIJ1RWXY/LB1 |
Departure
| Time | N/A |
|---|---|
| Airport | Seville Airport (LEZL) |
Arrival
| Time | 2026-05-07 11:43 |
|---|---|
| Airport | Stockholm-Arlanda Airport (ESSA) |
| Time | Latitude | Longitude | Altitude | Speed | Heading |
|---|---|---|---|---|---|
| 2026-05-07 11:00 | 56.95693 | 10.90058 | 39110 ft | 483 kts | 37° |
| 2026-05-07 11:00 | 56.98301 | 10.93935 | 39108 ft | 483 kts | 37° |
| 2026-05-07 11:00 | 57.03488 | 11.01677 | 39105 ft | 483 kts | 37° |
| 2026-05-07 11:01 | 57.08704 | 11.09507 | 39109 ft | 484 kts | 38° |
| 2026-05-07 11:01 | 57.13926 | 11.17355 | 39110 ft | 484 kts | 38° |
| 2026-05-07 11:02 | 57.19149 | 11.25228 | 39106 ft | 485 kts | 38° |
| 2026-05-07 11:02 | 57.23896 | 11.34107 | 39107 ft | 486 kts | 47° |
| 2026-05-07 11:03 | 57.28449 | 11.43295 | 39104 ft | 487 kts | 46° |
| 2026-05-07 11:03 | 57.33110 | 11.52415 | 39110 ft | 487 kts | 45° |
| 2026-05-07 11:04 | 57.37813 | 11.61501 | 39112 ft | 488 kts | 45° |
| 2026-05-07 11:04 | 57.42497 | 11.70632 | 39107 ft | 489 kts | 45° |
| 2026-05-07 11:05 | 57.46379 | 11.78285 | 39105 ft | 489 kts | 46° |
| 2026-05-07 11:05 | 57.48028 | 11.81561 | 39102 ft | 489 kts | 46° |
| 2026-05-07 11:06 | 57.52679 | 11.90822 | 39110 ft | 489 kts | 46° |
| 2026-05-07 11:06 | 57.57316 | 12.00037 | 39094 ft | 489 kts | 46° |
| 2026-05-07 11:07 | 57.61972 | 12.09318 | 39095 ft | 489 kts | 46° |
| 2026-05-07 11:07 | 57.66617 | 12.18642 | 39094 ft | 489 kts | 46° |
| 2026-05-07 11:08 | 57.71249 | 12.27979 | 39095 ft | 489 kts | 46° |
| 2026-05-07 11:08 | 57.75852 | 12.37295 | 39095 ft | 490 kts | 46° |
| 2026-05-07 11:09 | 57.80481 | 12.46683 | 39095 ft | 490 kts | 46° |
| 2026-05-07 11:09 | 57.85100 | 12.56092 | 39094 ft | 489 kts | 46° |
| 2026-05-07 11:10 | 57.89689 | 12.65486 | 39092 ft | 490 kts | 46° |
| 2026-05-07 11:10 | 57.93546 | 12.73413 | 39088 ft | 489 kts | 46° |
| 2026-05-07 11:11 | 57.98114 | 12.82833 | 39086 ft | 489 kts | 46° |
| 2026-05-07 11:11 | 58.02705 | 12.92337 | 39085 ft | 489 kts | 46° |
| 2026-05-07 11:12 | 58.07287 | 13.01876 | 39084 ft | 489 kts | 46° |
| 2026-05-07 11:12 | 58.11863 | 13.11435 | 39081 ft | 490 kts | 46° |
| 2026-05-07 11:13 | 58.16411 | 13.20972 | 39082 ft | 490 kts | 46° |
| 2026-05-07 11:13 | 58.20983 | 13.30582 | 39085 ft | 490 kts | 46° |
| 2026-05-07 11:14 | 58.25547 | 13.40214 | 39080 ft | 490 kts | 46° |
| 2026-05-07 11:14 | 58.30097 | 13.49869 | 39092 ft | 490 kts | 47° |
| 2026-05-07 11:15 | 58.34641 | 13.59573 | 39085 ft | 490 kts | 47° |
| 2026-05-07 11:15 | 58.39165 | 13.69257 | 39088 ft | 491 kts | 47° |
| 2026-05-07 11:16 | 58.43703 | 13.79013 | 39084 ft | 491 kts | 47° |
| 2026-05-07 11:16 | 58.48229 | 13.88799 | 39089 ft | 491 kts | 47° |
| 2026-05-07 11:17 | 58.52722 | 13.98559 | 39083 ft | 491 kts | 47° |
| 2026-05-07 11:17 | 58.57230 | 14.08379 | 39075 ft | 491 kts | 47° |
| 2026-05-07 11:18 | 58.61756 | 14.18264 | 39075 ft | 491 kts | 47° |
| 2026-05-07 11:18 | 58.66265 | 14.28146 | 39009 ft | 492 kts | 47° |
| 2026-05-07 11:19 | 58.68518 | 14.33096 | 38784 ft | 491 kts | 47° |
| 2026-05-07 11:19 | 58.70772 | 14.38058 | 38522 ft | 492 kts | 47° |
| 2026-05-07 11:19 | 58.72986 | 14.42957 | 38251 ft | 492 kts | 47° |
| 2026-05-07 11:19 | 58.75232 | 14.47930 | 37970 ft | 493 kts | 47° |
| 2026-05-07 11:20 | 58.77490 | 14.52916 | 37703 ft | 493 kts | 47° |
| 2026-05-07 11:20 | 58.79755 | 14.57929 | 37429 ft | 494 kts | 47° |
| 2026-05-07 11:20 | 58.82006 | 14.62946 | 37144 ft | 494 kts | 47° |
| 2026-05-07 11:20 | 58.84266 | 14.67998 | 36349 ft | 500 kts | 47° |
| 2026-05-07 11:21 | 58.86556 | 14.73108 | 35634 ft | 503 kts | 47° |
| 2026-05-07 11:21 | 58.88836 | 14.78212 | 35183 ft | 500 kts | 47° |
| 2026-05-07 11:21 | 58.91105 | 14.83315 | 34643 ft | 499 kts | 47° |
| 2026-05-07 11:21 | 58.93364 | 14.88420 | 34101 ft | 499 kts | 47° |
| 2026-05-07 11:22 | 58.95615 | 14.93530 | 33499 ft | 497 kts | 47° |
| 2026-05-07 11:22 | 58.97820 | 14.98563 | 32972 ft | 494 kts | 47° |
| 2026-05-07 11:22 | 59.00043 | 15.03636 | 32417 ft | 492 kts | 47° |
| 2026-05-07 11:22 | 59.02260 | 15.08693 | 31864 ft | 490 kts | 47° |
| 2026-05-07 11:23 | 59.04464 | 15.13709 | 31333 ft | 487 kts | 46° |
| 2026-05-07 11:23 | 59.06666 | 15.18709 | 30793 ft | 485 kts | 46° |
| 2026-05-07 11:23 | 59.08849 | 15.23695 | 30269 ft | 483 kts | 46° |
| 2026-05-07 11:23 | 59.11015 | 15.28666 | 29699 ft | 481 kts | 46° |
| 2026-05-07 11:24 | 59.13168 | 15.33609 | 29197 ft | 476 kts | 46° |
| 2026-05-07 11:24 | 59.15295 | 15.38508 | 28709 ft | 471 kts | 46° |
| 2026-05-07 11:24 | 59.17399 | 15.43378 | 28228 ft | 467 kts | 46° |
| 2026-05-07 11:24 | 59.19480 | 15.48208 | 27750 ft | 462 kts | 46° |
| 2026-05-07 11:25 | 59.21542 | 15.53005 | 27285 ft | 458 kts | 46° |
| 2026-05-07 11:25 | 59.23584 | 15.57762 | 26823 ft | 455 kts | 46° |
| 2026-05-07 11:25 | 59.25605 | 15.62479 | 26368 ft | 451 kts | 46° |
| 2026-05-07 11:25 | 59.27612 | 15.67169 | 25913 ft | 448 kts | 46° |
| 2026-05-07 11:26 | 59.29609 | 15.71840 | 25434 ft | 446 kts | 46° |
| 2026-05-07 11:26 | 59.31592 | 15.76493 | 24960 ft | 444 kts | 46° |
| 2026-05-07 11:26 | 59.33568 | 15.81137 | 24460 ft | 443 kts | 46° |
| 2026-05-07 11:26 | 59.35538 | 15.85777 | 24028 ft | 441 kts | 46° |
| 2026-05-07 11:27 | 59.37476 | 15.90350 | 23501 ft | 441 kts | 46° |
| 2026-05-07 11:27 | 59.39273 | 15.95162 | 23071 ft | 436 kts | 59° |
| 2026-05-07 11:27 | 59.40561 | 16.00536 | 22424 ft | 433 kts | 65° |
| 2026-05-07 11:27 | 59.41785 | 16.05979 | 21803 ft | 428 kts | 65° |
| 2026-05-07 11:28 | 59.42958 | 16.11245 | 21192 ft | 423 kts | 65° |
| 2026-05-07 11:28 | 59.44122 | 16.16523 | 20593 ft | 418 kts | 65° |
| 2026-05-07 11:28 | 59.45263 | 16.21730 | 19992 ft | 412 kts | 65° |
| 2026-05-07 11:28 | 59.46392 | 16.26876 | 19394 ft | 407 kts | 65° |
| 2026-05-07 11:29 | 59.47508 | 16.31966 | 18809 ft | 402 kts | 65° |
| 2026-05-07 11:29 | 59.48608 | 16.36983 | 18222 ft | 397 kts | 65° |
| 2026-05-07 11:29 | 59.49697 | 16.41939 | 17570 ft | 392 kts | 64° |
| 2026-05-07 11:29 | 59.50767 | 16.46838 | 16941 ft | 386 kts | 65° |
| 2026-05-07 11:30 | 59.51819 | 16.51663 | 16322 ft | 381 kts | 64° |
| 2026-05-07 11:30 | 59.52859 | 16.56441 | 15755 ft | 375 kts | 64° |
| 2026-05-07 11:30 | 59.53880 | 16.61128 | 15201 ft | 369 kts | 64° |
| 2026-05-07 11:30 | 59.54879 | 16.65736 | 14745 ft | 361 kts | 64° |
| 2026-05-07 11:31 | 59.55853 | 16.70247 | 14311 ft | 354 kts | 64° |
| 2026-05-07 11:31 | 59.56806 | 16.74670 | 13891 ft | 347 kts | 64° |
| 2026-05-07 11:31 | 59.57739 | 16.79017 | 13439 ft | 340 kts | 64° |
| 2026-05-07 11:31 | 59.58653 | 16.83281 | 13034 ft | 336 kts | 65° |
| 2026-05-07 11:32 | 59.60455 | 16.91724 | 12212 ft | 331 kts | 65° |
| 2026-05-07 11:32 | 59.61343 | 16.95902 | 11810 ft | 328 kts | 65° |
| 2026-05-07 11:32 | 59.62225 | 17.00047 | 11406 ft | 326 kts | 66° |
| 2026-05-07 11:33 | 59.63088 | 17.04116 | 11027 ft | 323 kts | 66° |
| 2026-05-07 11:33 | 59.63949 | 17.08192 | 10883 ft | 312 kts | 66° |
| 2026-05-07 11:33 | 59.64778 | 17.12141 | 10559 ft | 309 kts | 66° |
| 2026-05-07 11:33 | 59.65600 | 17.16038 | 10119 ft | 305 kts | 66° |
| 2026-05-07 11:34 | 59.66414 | 17.19888 | 9536 ft | 301 kts | 66° |
| 2026-05-07 11:34 | 59.67203 | 17.23630 | 9051 ft | 295 kts | 66° |
| 2026-05-07 11:34 | 59.67979 | 17.27316 | 8674 ft | 284 kts | 66° |
| 2026-05-07 11:34 | 59.68664 | 17.30562 | 8365 ft | 282 kts | 66° |
| 2026-05-07 11:35 | 59.69420 | 17.34152 | 8008 ft | 282 kts | 67° |
| 2026-05-07 11:35 | 59.70173 | 17.37744 | 7656 ft | 281 kts | 67° |
| 2026-05-07 11:35 | 59.70920 | 17.41334 | 7302 ft | 280 kts | 67° |
| 2026-05-07 11:35 | 59.71650 | 17.44855 | 6951 ft | 272 kts | 67° |
| 2026-05-07 11:36 | 59.72354 | 17.48271 | 6625 ft | 263 kts | 67° |
| 2026-05-07 11:36 | 59.73035 | 17.51579 | 6293 ft | 255 kts | 67° |
| 2026-05-07 11:36 | 59.73688 | 17.54736 | 5992 ft | 246 kts | 67° |
| 2026-05-07 11:36 | 59.74328 | 17.57824 | 5704 ft | 241 kts | 67° |
| 2026-05-07 11:37 | 59.74987 | 17.60871 | 5413 ft | 239 kts | 65° |
| 2026-05-07 11:37 | 59.75696 | 17.63842 | 5125 ft | 236 kts | 64° |
| 2026-05-07 11:37 | 59.76413 | 17.66755 | 4847 ft | 234 kts | 63° |
| 2026-05-07 11:37 | 59.77131 | 17.69652 | 4534 ft | 231 kts | 63° |
| 2026-05-07 11:38 | 59.77765 | 17.72547 | 4250 ft | 226 kts | 73° |
| 2026-05-07 11:38 | 59.78200 | 17.75504 | 3994 ft | 222 kts | 74° |
| 2026-05-07 11:38 | 59.78633 | 17.78439 | 3710 ft | 220 kts | 74° |
| 2026-05-07 11:38 | 59.79046 | 17.81312 | 3441 ft | 219 kts | 77° |
| 2026-05-07 11:39 | 59.79166 | 17.84330 | 3138 ft | 218 kts | 95° |
| 2026-05-07 11:39 | 59.78870 | 17.87263 | 2865 ft | 217 kts | 112° |
| 2026-05-07 11:39 | 59.78188 | 17.89893 | 2550 ft | 210 kts | 127° |
| 2026-05-07 11:39 | 59.77247 | 17.91939 | 2359 ft | 196 kts | 141° |
| 2026-05-07 11:40 | 59.76135 | 17.93445 | 2045 ft | 190 kts | 154° |
| 2026-05-07 11:40 | 59.74947 | 17.94351 | 1789 ft | 177 kts | 167° |
| 2026-05-07 11:40 | 59.73779 | 17.94690 | 1563 ft | 164 kts | 179° |
| 2026-05-07 11:40 | 59.72688 | 17.94556 | 1378 ft | 148 kts | 190° |
| 2026-05-07 11:41 | 59.71739 | 17.94207 | 1284 ft | 132 kts | 191° |
| 2026-05-07 11:41 | 59.70861 | 17.93883 | 1228 ft | 127 kts | 193° |
| 2026-05-07 11:41 | 59.69995 | 17.93557 | 922 ft | 126 kts | 192° |
| 2026-05-07 11:41 | 59.69141 | 17.93258 | 709 ft | 124 kts | 191° |
| 2026-05-07 11:42 | 59.68297 | 17.92966 | 467 ft | 123 kts | 190° |
| 2026-05-07 11:42 | 59.67457 | 17.92669 | 338 ft | 123 kts | 191° |
| 2026-05-07 11:42 | 59.66628 | 17.92371 | 167 ft | 121 kts | 191° |
| 2026-05-07 11:42 | 59.65866 | 17.92098 | 114 ft | 95 kts | 190° |
| 2026-05-07 11:43 | 59.65346 | 17.91907 | 105 ft | 46 kts | 190° |
| 2026-05-07 11:43 | 59.65163 | 17.91914 | 104 ft | 23 kts | 165° |
| 2026-05-07 11:43 | 59.65014 | 17.92013 | 104 ft | 19 kts | 153° |
| 2026-05-07 11:43 | 59.64969 | 17.92128 | 106 ft | 10 kts | 51° |
| 2026-05-07 11:44 | 59.65045 | 17.92161 | 107 ft | 13 kts | 9° |
| 2026-05-07 11:44 | 59.65140 | 17.92200 | 107 ft | 15 kts | 13° |
| 2026-05-07 11:44 | 59.65254 | 17.92243 | 107 ft | 18 kts | 10° |
| 2026-05-07 11:44 | 59.65389 | 17.92297 | 105 ft | 20 kts | 20° |
| 2026-05-07 11:45 | 59.65492 | 17.92490 | 105 ft | 19 kts | 74° |
| 2026-05-07 11:45 | 59.65409 | 17.92653 | 111 ft | 18 kts | 151° |
| 2026-05-07 11:45 | 59.65300 | 17.92767 | 112 ft | 13 kts | 152° |
| 2026-05-07 11:45 | 59.65274 | 17.92881 | 110 ft | 9 kts | 68° |
| 2026-05-07 11:46 | 59.65286 | 17.92944 | 112 ft | 0 kts | 70° |
| 2026-05-07 11:46 | 59.65290 | 17.92964 | 110 ft | 0 kts | 70° |